Data for 10/07/2013

Time Sea-Level Adjusted Pressure Absolute Pressure Temperature Relative Humidity Dew Point   
(mb) (inHg) (mb) (inHg) (C) (F) (%) (C) (F)
08:00 1016 30 846 24.98 6.3 43.4 47 -4 24.8
08:05 1016 30 846 24.98 6.2 43.1 50 -3.6 25.6
08:10 1016 30 845 24.95 6.4 43.5 44 -5 23
12:10 1025 30.27 854 25.22 14.1 57.3 41 1.1 34
12:15 1025 30.27 854 25.22 14.6 58.3 39 0.9 33.6
12:20 1025 30.27 854 25.22 14.7 58.5 39 1 33.8
12:25 1025 30.27 854 25.22 14.7 58.5 39 1.1 34
12:30 1025 30.27 854 25.22 15.3 59.5 38 1 33.8
12:35 1025 30.27 854 25.22 15.3 59.5 37 1 33.7
12:40 1025 30.27 854 25.22 14.5 58.2 40 1.2 34.1
12:45 1025 30.27 854 25.22 15.4 59.7 36 0.3 32.6
12:50 1024 30.24 854 25.22 15.5 59.8 36 0.5 32.9
12:55 1024 30.24 854 25.22 16.1 60.9 36 1.1 33.9
13:00 1024 30.24 853 25.19 16.5 61.8 33 0.2 32.3
13:05 1024 30.24 853 25.19 16.6 61.8 34 0.6 33.1
13:10 1024 30.24 853 25.19 16.8 62.2 34 1.1 34
13:15 1024 30.24 853 25.19 16.8 62.2 33 0.6 33.2
13:20 1024 30.24 853 25.19 16.5 61.7 34 0.7 33.2
13:25 1024 30.24 853 25.19 16.9 62.4 34 0.9 33.7
13:30 1024 30.24 853 25.19 16.9 62.3 31 -0.4 31.3
13:35 1024 30.24 853 25.19 17.3 63.2 30 -0.1 31.8
13:40 1024 30.24 853 25.19 17.3 63.2 30 -0.1 31.8
13:45 1024 30.24 853 25.19 17.7 63.8 29 -0.4 31.3
13:50 1024 30.24 853 25.19 17.9 64.1 31 0.8 33.4
13:55 1024 30.24 853 25.19 17.2 63 31 0.1 32.2
14:00 1024 30.24 853 25.19 16.5 61.7 32 -0.2 31.7
14:05 1023 30.21 853 25.19 17.5 63.6 30 0.1 32.2
14:10 1023 30.21 853 25.19 17.9 64.3 30 0.2 32.3
14:15 1023 30.21 853 25.19 18.3 64.9 28 -0.4 31.2
14:20 1023 30.21 853 25.19 18.3 65 28 -0.4 31.2
14:25 1023 30.21 853 25.19 18.4 65.2 27 -0.8 30.6
14:30 1023 30.21 853 25.19 17.8 64 30 0.1 32.1
14:35 1023 30.21 852 25.16 17.4 63.3 30 -0.2 31.6
14:40 1023 30.21 852 25.16 17.5 63.4 29 -0.5 31.2
14:45 1023 30.21 852 25.16 17.3 63.2 29 -0.9 30.4
14:50 1023 30.21 852 25.16 18 64.5 27 -1.3 29.7
14:55 1023 30.21 852 25.16 17.8 64 28 -1.1 30.1
15:00 1023 30.21 852 25.16 18.9 65.9 26 -1.1 30.1
15:05 1023 30.21 852 25.16 19.1 66.3 26 -0.7 30.8
15:10 1023 30.21 852 25.16 19.1 66.3 26 -0.6 30.9
15:15 1023 30.21 852 25.16 19.2 66.5 26 -0.5 31
15:20 1023 30.21 852 25.16 19.2 66.5 27 -0.1 31.8
15:25 1023 30.21 852 25.16 19.1 66.4 26 -0.8 30.6
15:30 1023 30.21 852 25.16 18.9 66.1 25 -1.5 29.4
15:35 1023 30.21 852 25.16 19 66.2 25 -1.2 29.8
15:40 1023 30.21 852 25.16 19.2 66.5 25 -1.3 29.7
15:45 1023 30.21 852 25.16 19 66.3 25 -1.3 29.6
15:50 1023 30.21 852 25.16 19.1 66.3 25 -1.1 30
15:55 1023 30.21 852 25.16 18.9 66 26 -1.1 30
16:00 1023 30.21 852 25.16 18.5 65.3 27 -0.6 31
16:05 1023 30.21 852 25.16 18.5 65.2 27 -0.8 30.6
16:10 1023 30.21 852 25.16 18.6 65.5 27 -0.7 30.8
16:15 1023 30.21 852 25.16 18.7 65.6 26 -1 30.1
16:20 1023 30.21 852 25.16 18.8 65.8 26 -0.9 30.5
16:25 1023 30.21 852 25.16 18.8 65.8 26 -1.1 30
16:30 1023 30.21 852 25.16 18.9 66 26 -1.1 29.9
16:35 1023 30.21 852 25.16 18.8 65.8 26 -1 30.2
16:40 1023 30.21 852 25.16 18.5 65.3 26 -1.3 29.7
16:45 1023 30.21 852 25.16 18.5 65.3 26 -1.3 29.6
16:50 1023 30.21 852 25.16 18.1 64.6 26 -1.4 29.4
16:55 1023 30.21 852 25.16 18.2 64.7 26 -1.4 29.5
17:00 1023 30.21 852 25.16 18.1 64.7 28 -0.8 30.6
00:05 1020 30.12 849 25.07 8.5 47.3 37 -5.5 22.1
00:10 1020 30.12 849 25.07 8.7 47.6 36 -5.6 21.8
00:15 1020 30.12 849 25.07 8.5 47.2 39 -4.7 23.5
00:20 1020 30.12 849 25.07 7.8 46 39 -5.3 22.4
00:25 1020 30.12 849 25.07 7.7 45.8 39 -5.6 22
00:30 1020 30.12 849 25.07 7.2 44.9 42 -4.8 23.4
00:35 1019 30.09 849 25.07 6.2 43.2 44 -5 23
00:40 1019 30.09 849 25.07 5.9 42.7 46 -4.9 23.3
00:45 1019 30.09 849 25.07 6.1 43.1 42 -5.9 21.4
00:50 1019 30.09 849 25.07 6.8 44.3 41 -5.7 21.8
00:55 1019 30.09 849 25.07 7.5 45.5 37 -6.2 20.8
01:00 1019 30.09 849 25.07 8 46.4 36 -6 21.2
01:05 1019 30.09 849 25.07 8.1 46.6 37 -5.8 21.6
01:10 1019 30.09 849 25.07 7.8 46.1 39 -5.2 22.6
01:15 1019 30.09 848 25.04 7.1 44.9 39 -6 21.2
01:20 1019 30.09 848 25.04 7.6 45.7 36 -6.4 20.6
01:25 1019 30.09 848 25.04 8.1 46.5 38 -5.5 22.1
01:30 1019 30.09 848 25.04 7.8 46 37 -6.1 21
01:35 1019 30.09 848 25.04 8.3 46.9 36 -5.8 21.5
01:40 1019 30.09 848 25.04 7.9 46.3 39 -5.2 22.7
01:45 1019 30.09 848 25.04 7.5 45.5 39 -5.6 21.9
01:50 1019 30.09 848 25.04 6.9 44.4 43 -4.8 23.3
01:55 1019 30.09 848 25.04 5.9 42.7 44 -5.3 22.5
02:00 1019 30.09 848 25.04 6.2 43.1 41 -6 21.1
02:05 1019 30.09 848 25.04 6 42.8 46 -4.7 23.6
02:10 1019 30.09 848 25.04 5.7 42.3 40 -7 19.4
02:15 1019 30.09 848 25.04 6.1 43 44 -5.2 22.6
02:20 1019 30.09 848 25.04 5.7 42.3 43 -6 21.2
02:25 1019 30.09 848 25.04 6.3 43.4 40 -6.5 20.4
02:30 1019 30.09 848 25.04 6.4 43.4 42 -5.5 22.1
02:35 1019 30.09 848 25.04 5.6 42.1 47 -4.9 23.2
02:40 1019 30.09 848 25.04 5.6 42.1 42 -6.4 20.4
02:45 1019 30.09 848 25.04 6.9 44.4 36 -7.1 19.3
02:50 1018 30.06 848 25.04 7.6 45.7 38 -5.8 21.5
02:55 1018 30.06 848 25.04 7.1 44.8 39 -5.9 21.3
03:00 1018 30.06 848 25.04 6.5 43.7 41 -6 21.3
03:05 1018 30.06 847 25.01 6.2 43.1 42 -5.9 21.4
03:10 1018 30.06 847 25.01 6.1 42.9 41 -6.3 20.6
03:15 1018 30.06 847 25.01 6.1 43 44 -5.3 22.5
03:20 1018 30.06 847 25.01 5.6 42.1 42 -6.2 20.8
03:25 1018 30.06 847 25.01 6.8 44.2 40 -5.9 21.3
03:30 1018 30.06 847 25.01 6.5 43.6 42 -5.5 22
03:35 1018 30.06 847 25.01 6.3 43.3 42 -5.8 21.6
03:40 1018 30.06 847 25.01 6.4 43.4 39 -6.6 20.2
03:45 1018 30.06 847 25.01 6.9 44.5 40 -5.8 21.6
03:50 1018 30.06 847 25.01 6.6 43.9 43 -5 23.1
03:55 1018 30.06 847 25.01 5.5 41.8 48 -4.8 23.4
04:00 1018 30.06 847 25.01 4.6 40.3 50 -5 23.1
04:05 1018 30.06 847 25.01 4.2 39.6 53 -4.7 23.6
04:10 1018 30.06 847 25.01 3.8 38.9 54 -4.5 23.8
04:15 1018 30.06 847 25.01 4 39.2 52 -5 23
04:20 1018 30.06 847 25.01 4.1 39.5 54 -4.5 24
04:25 1018 30.06 847 25.01 3.5 38.2 60 -3.6 25.4
04:30 1018 30.06 847 25.01 2.2 36 60 -4.7 23.5
04:35 1018 30.06 847 25.01 3.7 38.7 48 -6.3 20.6
04:40 1018 30.06 847 25.01 5.1 41.1 47 -5.4 22.3
04:45 1018 30.06 847 25.01 5 41.1 46 -5.5 22.1
04:50 1018 30.06 847 25.01 5 41 47 -5.3 22.4
04:55 1018 30.06 847 25.01 5 40.9 48 -5.1 22.8
05:00 1018 30.06 847 25.01 4.8 40.7 47 -5.5 22.1
05:05 1018 30.06 847 25.01 5.2 41.3 45 -5.9 21.5
05:10 1018 30.06 847 25.01 5.4 41.7 46 -5.2 22.6
05:15 1018 30.06 847 25.01 5.5 41.9 46 -5.2 22.6
05:20 1017 30.03 847 25.01 5.2 41.4 49 -4.6 23.7
05:25 1017 30.03 847 25.01 4.5 40.1 50 -5.1 22.9
05:30 1017 30.03 847 25.01 4.6 40.3 51 -4.8 23.4
05:35 1017 30.03 846 24.98 4.7 40.4 46 -5.9 21.4
05:40 1017 30.03 846 24.98 5.7 42.2 46 -5 22.9
05:45 1017 30.03 846 24.98 5.4 41.7 48 -4.7 23.6
05:50 1017 30.03 846 24.98 5.4 41.7 47 -5.1 22.9
05:55 1017 30.03 846 24.98 5.5 42 48 -4.7 23.6
06:00 1017 30.03 846 24.98 5.2 41.4 48 -5 23
06:05 1017 30.03 846 24.98 5.4 41.8 45 -5.4 22.2
06:10 1017 30.03 846 24.98 5.9 42.6 45 -5.3 22.5
06:15 1017 30.03 846 24.98 5.7 42.2 45 -5.4 22.4
06:20 1017 30.03 846 24.98 5.4 41.6 46 -5.4 22.3
06:25 1017 30.03 846 24.98 4.9 40.8 50 -4.6 23.8
06:30 1017 30.03 846 24.98 4 39.3 52 -4.9 23.1
06:35 1017 30.03 846 24.98 4.3 39.7 48 -5.7 21.7
06:40 1017 30.03 846 24.98 5.2 41.4 44 -6.2 20.9
06:45 1017 30.03 846 24.98 5.9 42.6 43 -5.6 21.9
06:50 1017 30.03 846 24.98 5.6 42 47 -5 23
06:55 1017 30.03 846 24.98 5.2 41.3 48 -4.9 23.2
07:00 1017 30.03 846 24.98 4.5 40.1 52 -4.5 23.8
07:05 1016 30 846 24.98 3.9 39 53 -4.9 23.2
07:10 1016 30 846 24.98 3.9 39.1 52 -5.1 22.9
07:15 1016 30 846 24.98 4.4 39.8 51 -4.9 23.3
07:20 1016 30 846 24.98 5.2 41.3 48 -5 22.9
07:25 1016 30 845 24.95 5.6 42.1 48 -4.6 23.7
07:30 1016 30 845 24.95 5.6 42 49 -4.4 24.2
07:35 1016 30 846 24.98 6 42.9 46 -4.6 23.6
07:40 1016 30 846 24.98 6.5 43.8 45 -4.5 23.9
07:45 1016 30 846 24.98 6.5 43.7 48 -3.8 25.1
07:50 1016 30 845 24.95 6.1 43 49 -3.7 25.3
07:55 1016 30 846 24.98 6 42.9 48 -4.1 24.7
08:10 1016 30 845 24.95 6.4 43.5 44 -5 23
08:15 1016 30 845 24.95 6.7 44.1 44 -4.7 23.5
08:20 1016 30 845 24.95 7.1 44.8 43 -4.5 23.9
08:25 1016 30 845 24.95 7.3 45.1 49 -2.8 27
08:30 1016 30 845 24.95 7.1 44.7 47 -3.6 25.6
08:35 1016 30 845 24.95 7.5 45.5 45 -3.5 25.6
08:40 1016 30 845 24.95 7.8 46.1 47 -2.8 27
08:45 1016 30 845 24.95 8 46.4 47 -2.5 27.5
08:50 1016 30 845 24.95 8.1 46.6 43 -3.8 25.1
08:55 1016 30 845 24.95 8.2 46.8 50 -1.6 29.2
09:00 1016 30 846 24.98 8.4 47.1 46 -2.5 27.4
09:05 1016 30 845 24.95 8.4 47.1 45 -3 26.7
09:10 1016 30 845 24.95 8.4 47.1 45 -2.7 27.1
09:15 1016 30 845 24.95 8.6 47.4 44 -2.9 26.8
09:20 1016 30 845 24.95 8.6 47.4 46 -2.5 27.5
09:25 1016 30 845 24.95 8.2 46.8 46 -2.6 27.3
09:30 1016 30 845 24.95 9 48.2 45 -2.2 28
09:35 1016 30 845 24.95 9.8 49.6 38 -3.9 24.9
09:40 1016 30 845 24.95 10.2 50.3 41 -2.4 27.7
09:45 1016 30 845 24.95 11 51.8 35 -4 24.7
09:50 1016 30 845 24.95 11.7 53.1 34 -3.4 25.8
09:55 1016 30 845 24.95 12.2 53.9 32 -4.1 24.6
10:00 1016 30 845 24.95 12.9 55.3 30 -4.1 24.7
10:05 1016 30 845 24.95 13.6 56.6 29 -3.9 25
10:10 1016 30 845 24.95 14.1 57.3 29 -3.7 25.3
10:15 1015 29.97 845 24.95 14.2 57.6 28 -4 24.7
10:20 1015 29.97 845 24.95 15.1 59.2 25 -4.4 24
10:25 1015 29.97 845 24.95 15.8 60.5 25 -3.9 25
10:30 1015 29.97 845 24.95 16 60.9 25 -4.1 24.6
10:35 1015 29.97 845 24.95 15.7 60.3 24 -4.8 23.4
10:40 1015 29.97 844 24.92 15.6 60 24 -5.1 22.8
10:45 1015 29.97 844 24.92 15.9 60.7 23 -5.1 22.8
10:50 1015 29.97 844 24.92 16.5 61.7 20 -6.6 20.2
10:55 1015 29.97 844 24.92 16.2 61.1 22 -5.4 22.2
11:00 1015 29.97 844 24.92 16 60.8 23 -5.3 22.4
11:05 1015 29.97 844 24.92 16.8 62.2 22 -5 22.9
11:10 1015 29.97 844 24.92 16.9 62.5 22 -5.1 22.8
11:15 1015 29.97 844 24.92 17.1 62.7 22 -5 23
11:20 1014 29.94 844 24.92 17.1 62.7 22 -4.4 24
11:25 1014 29.94 844 24.92 17.5 63.4 21 -4.9 23.2
11:30 1014 29.94 843 24.89 17.9 64.3 21 -4.5 23.9
11:35 1014 29.94 843 24.89 18 64.4 20 -5.2 22.6
11:40 1014 29.94 843 24.89 18 64.4 21 -4.6 23.6
11:45 1014 29.94 843 24.89 17.6 63.7 20 -5.6 22
11:50 1014 29.94 843 24.89 18.4 65.1 20 -5.1 22.8
11:55 1014 29.94 843 24.89 18.9 66 19 -5.1 22.7
12:00 1014 29.94 843 24.89 19.2 66.5 19 -5.1 22.9
12:05 1014 29.94 843 24.89 19.4 66.9 19 -5 23
12:10 1014 29.94 843 24.89 19.8 67.7 19 -4.1 24.7
12:15 1013 29.91 843 24.89 19.9 67.9 18 -4.7 23.6
12:20 1013 29.91 843 24.89 19.3 66.7 17 -6.1 21.1
12:25 1013 29.91 842 24.86 19.4 66.9 18 -5.2 22.6
12:30 1013 29.91 842 24.86 19.5 67 19 -4.8 23.4
12:35 1013 29.91 842 24.86 20.2 68.3 19 -4.3 24.2
12:40 1013 29.91 842 24.86 19.9 67.8 19 -4 24.7
12:45 1013 29.91 842 24.86 20.5 69 19 -3.9 25
12:50 1013 29.91 842 24.86 20.8 69.4 19 -3.7 25.3
12:55 1013 29.91 842 24.86 20.8 69.5 19 -3.1 26.4
13:00 1013 29.91 842 24.86 21.1 69.9 18 -4.1 24.7
13:05 1013 29.91 842 24.86 20.7 69.3 20 -3.1 26.5
13:10 1012 29.88 842 24.86 19.8 67.6 20 -3.6 25.5
13:15 1012 29.88 842 24.86 19.9 67.7 21 -2.8 27
13:20 1012 29.88 842 24.86 20.1 68.1 20 -3.5 25.7
13:25 1012 29.88 841 24.83 20.4 68.7 20 -3.3 26
13:30 1012 29.88 841 24.83 20.7 69.2 21 -2.5 27.5
13:35 1012 29.88 841 24.83 20.6 69 19 -3.6 25.5
13:40 1012 29.88 841 24.83 20 67.9 21 -3 26.5
13:45 1012 29.88 841 24.83 20.9 69.7 18 -4.1 24.6
13:50 1012 29.88 841 24.83 21.4 70.4 17 -4.6 23.8
13:55 1012 29.88 841 24.83 22.2 71.9 15 -5.2 22.7
14:00 1012 29.88 841 24.83 22.6 72.7 15 -4.8 23.3
14:05 1012 29.88 841 24.83 22.5 72.6 13 -7 19.5
14:10 1012 29.88 841 24.83 22.9 73.1 14 -6 21.1
14:15 1012 29.88 841 24.83 23 73.3 14 -5.7 21.8
14:20 1012 29.88 841 24.83 23.3 73.9 13 -6.8 19.7
14:25 1012 29.88 841 24.83 23.4 74.1 13 -6.7 19.9
14:30 1011 29.85 841 24.83 23.2 73.8 11 -8.9 15.9
14:35 1011 29.85 841 24.83 23.1 73.5 10 -9.8 14.4
14:40 1011 29.85 841 24.83 22.8 73 10 -10.1 13.8
14:45 1011 29.85 840 24.81 22.7 72.9 11 -8.7 16.3
14:50 1011 29.85 840 24.81 22.7 72.8 12 -8 17.5
14:55 1011 29.85 840 24.81 22.2 71.9 12 -8.2 17.2
15:00 1011 29.85 840 24.81 21.9 71.4 13 -7.7 18.1
15:05 1011 29.85 840 24.81 22.1 71.8 10 -10.5 13.1
15:10 1011 29.85 840 24.81 22.1 71.9 10 -11.3 11.7
15:15 1011 29.85 840 24.81 22.1 71.7 11 -9.7 14.5
15:20 1011 29.85 840 24.81 21.9 71.4 11 -9.3 15.2
15:25 1011 29.85 840 24.81 21.8 71.2 12 -9 15.8
15:30 1011 29.85 840 24.81 21.5 70.6 12 -9.3 15.3
15:35 1011 29.85 840 24.81 21.4 70.6 12 -8.7 16.3
15:40 1011 29.85 840 24.81 21.8 71.2 12 -8.8 16.2
15:45 1011 29.85 840 24.81 21.9 71.5 13 -8 17.6
15:50 1011 29.85 840 24.81 21.6 70.8 13 -8.2 17.3
15:55 1011 29.85 840 24.81 21.2 70.2 13 -8.2 17.3
16:00 1011 29.85 840 24.81 21 69.7 14 -7.8 18
16:05 1011 29.85 840 24.81 20.8 69.5 13 -8.4 16.8
16:10 1011 29.85 840 24.81 20.7 69.2 14 -7.8 17.9
16:15 1011 29.85 840 24.81 20.4 68.7 15 -7.2 19
16:20 1011 29.85 840 24.81 20.2 68.3 15 -7 19.5
16:25 1011 29.85 840 24.81 19.9 67.8 15 -7.1 19.2
16:30 1011 29.85 840 24.81 19.8 67.6 16 -6.8 19.8
16:35 1011 29.85 840 24.81 19.5 67.1 17 -6.4 20.5
16:40 1011 29.85 840 24.81 19.3 66.7 17 -6.4 20.4
16:45 1011 29.85 840 24.81 19.1 66.4 17 -6.6 20.1
16:50 1011 29.85 840 24.81 18.9 66 18 -5.9 21.4
16:55 1011 29.85 840 24.81 18.5 65.4 18 -5.9 21.4
17:00 1011 29.85 840 24.81 18.2 64.8 19 -5.6 21.9
17:05 1011 29.85 840 24.81 18.1 64.5 20 -5.4 22.3
17:10 1011 29.85 840 24.81 18 64.4 19 -5.8 21.5
17:15 1011 29.85 840 24.81 18 64.4 17 -7 19.4
17:20 1011 29.85 840 24.81 18 64.4 18 -6.6 20
17:25 1011 29.85 840 24.81 17.9 64.2 18 -6.7 20
17:30 1011 29.85 840 24.81 17.7 63.8 19 -6.1 21
17:35 1011 29.85 840 24.81 17.4 63.3 19 -6.4 20.5
17:40 1011 29.85 840 24.81 17.2 62.9 19 -6.6 20.1
17:45 1011 29.85 840 24.81 17 62.7 19 -6.4 20.4
17:50 1011 29.85 840 24.81 16.8 62.2 21 -5.5 22
17:55 1011 29.85 840 24.81 16.4 61.4 20 -6.3 20.6
18:00 1011 29.85 840 24.81 16 60.7 21 -6.4 20.5
18:05 1011 29.85 840 24.81 16 60.9 18 -8.2 17.2
18:10 1011 29.85 840 24.81 16.4 61.4 18 -8.1 17.5
18:15 1011 29.85 840 24.81 16.3 61.3 18 -7.9 17.8
18:20 1011 29.85 840 24.81 16.1 61 19 -7.3 18.8
18:25 1011 29.85 840 24.81 15.9 60.6 20 -7.1 19.1
18:30 1011 29.85 840 24.81 15.8 60.4 21 -6.5 20.3
18:35 1011 29.85 840 24.81 15.3 59.5 22 -6.4 20.5
18:40 1011 29.85 840 24.81 15 59 22 -6.6 20.1
18:45 1011 29.85 840 24.81 15.1 59.2 22 -6.2 20.8
18:50 1011 29.85 840 24.81 15.2 59.3 21 -6.7 19.9
18:55 1011 29.85 840 24.81 15.7 60.3 19 -7.8 17.9
19:00 1011 29.85 840 24.81 16.2 61.2 18 -8.2 17.2
19:05 1011 29.85 840 24.81 16.1 60.9 19 -7.5 18.6
19:10 1011 29.85 840 24.81 15.8 60.5 19 -7.8 18
19:15 1011 29.85 840 24.81 16 60.7 18 -8 17.7
19:20 1011 29.85 840 24.81 16.1 61 17 -8.7 16.4
19:25 1011 29.85 840 24.81 16.3 61.3 18 -7.7 18.2
19:30 1011 29.85 840 24.81 16 60.8 18 -8.6 16.6
19:35 1011 29.85 840 24.81 16.4 61.5 16 -9.2 15.5
19:40 1011 29.85 840 24.81 16.3 61.3 19 -7.6 18.3
19:45 1011 29.85 840 24.81 15.9 60.6 18 -8.3 17.1
19:50 1011 29.85 840 24.81 16.1 61 17 -8.7 16.3
19:55 1011 29.85 840 24.81 16.3 61.4 16 -9.6 14.6
20:00 1011 29.85 840 24.81 16.6 61.8 16 -9.3 15.2
20:05 1011 29.85 840 24.81 16.6 61.8 17 -8.7 16.3
20:10 1011 29.85 840 24.81 16.5 61.6 15 -9.9 14.1
20:15 1010 29.83 840 24.81 16.8 62.3 15 -10 13.9
20:20 1010 29.83 840 24.81 16.9 62.4 15 -10 14
20:25 1010 29.83 840 24.81 17 62.6 15 -10.1 13.8
20:30 1010 29.83 840 24.81 17 62.5 15 -9.7 14.5
20:35 1010 29.83 840 24.81 17 62.5 15 -9.9 14.1
20:40 1010 29.83 840 24.81 16.8 62.3 16 -9.5 15
20:45 1010 29.83 840 24.81 16.6 61.9 15 -10.2 13.6
20:50 1010 29.83 839 24.78 16.9 62.4 15 -9.8 14.3
20:55 1010 29.83 839 24.78 16.8 62.3 15 -10.2 13.6
21:00 1010 29.83 840 24.81 16.8 62.2 16 -9.3 15.3
21:05 1010 29.83 840 24.81 16.1 61 18 -8.4 16.9
21:10 1010 29.83 840 24.81 15.8 60.5 16 -9.8 14.4
21:15 1011 29.85 840 24.81 15.9 60.6 20 -6.8 19.8
21:20 1011 29.85 840 24.81 15.1 59.2 23 -5.5 22
21:25 1011 29.85 840 24.81 14.1 57.3 26 -5 23.1
21:30 1011 29.85 840 24.81 13.6 56.5 26 -5.6 21.9
21:35 1011 29.85 840 24.81 13.3 56 26 -5.9 21.5
21:40 1011 29.85 840 24.81 13.1 55.6 26 -5.9 21.4
21:45 1011 29.85 840 24.81 13 55.5 27 -5.6 22
21:50 1011 29.85 840 24.81 12.9 55.2 27 -5.5 22.2
21:55 1011 29.85 840 24.81 12.8 55.1 28 -5.4 22.4
22:00 1011 29.85 840 24.81 12.8 55 28 -5.2 22.7
22:05 1011 29.85 840 24.81 12.5 54.6 29 -5.1 22.8
22:10 1011 29.85 840 24.81 12.4 54.3 31 -4.3 24.3
22:15 1011 29.85 840 24.81 12.2 53.9 30 -4.7 23.6
22:20 1011 29.85 840 24.81 12 53.6 30 -4.8 23.4
22:25 1011 29.85 840 24.81 12 53.6 32 -4.3 24.3
22:30 1011 29.85 840 24.81 12 53.6 31 -4.7 23.6
22:35 1011 29.85 840 24.81 11.8 53.2 31 -4.6 23.7
22:40 1011 29.85 840 24.81 11.4 52.5 33 -4.4 24.1
22:45 1011 29.85 841 24.83 11 51.9 33 -4.8 23.4
22:50 1011 29.85 841 24.83 11.3 52.4 30 -5.5 22.1
22:55 1011 29.85 841 24.83 11.4 52.5 33 -4.4 24.1
23:00 1011 29.85 841 24.83 11.2 52.2 32 -4.8 23.3
23:05 1012 29.88 841 24.83 11.2 52.1 31 -5.2 22.6
23:10 1012 29.88 841 24.83 11.3 52.4 30 -5.6 21.9
23:15 1012 29.88 841 24.83 11.5 52.6 30 -5.3 22.5
23:20 1012 29.88 841 24.83 11.5 52.7 31 -4.9 23.2
23:25 1012 29.88 841 24.83 11.6 52.9 32 -4.6 23.8
23:30 1012 29.88 841 24.83 11.6 52.9 33 -4.3 24.3
23:35 1012 29.88 841 24.83 11.4 52.6 35 -3.5 25.7
23:40 1012 29.88 841 24.83 11.2 52.1 36 -3.3 26.1
23:45 1012 29.88 841 24.83 11 51.7 37 -3.1 26.4
23:50 1012 29.88 841 24.83 10.8 51.5 39 -2.6 27.4
23:55 1012 29.88 841 24.83 10.5 50.9 40 -2.5 27.5
24:00 1012 29.88 841 24.83 10.2 50.4 42 -2 28.3